createdAt,value
2023-07-11T00:03:33.362Z,100541.50
2023-07-11T00:08:38.083Z,100536.66
2023-07-11T00:13:41.051Z,100544.44
2023-07-11T00:18:43.153Z,100544.00
2023-07-11T00:23:44.889Z,100543.09
2023-07-11T00:28:46.558Z,100539.53
2023-07-11T00:33:48.289Z,100541.63
2023-07-11T00:38:50.009Z,100545.38
2023-07-11T00:43:52.545Z,100540.72
2023-07-11T00:48:56.435Z,100538.41
2023-07-11T00:53:58.668Z,100540.13
2023-07-11T00:59:00.540Z,100532.09
2023-07-11T01:04:03.090Z,100530.38
2023-07-11T01:09:05.933Z,100529.50
2023-07-11T01:14:07.773Z,100530.13
2023-07-11T01:19:09.553Z,100518.31
2023-07-11T01:24:12.442Z,100516.81
2023-07-11T01:29:14.169Z,100514.69
2023-07-11T01:34:15.853Z,100516.09
2023-07-11T01:39:17.902Z,100510.63
2023-07-11T01:44:20.530Z,100505.63
2023-07-11T01:49:22.208Z,100507.91
2023-07-11T01:54:23.993Z,100504.94
2023-07-11T01:59:25.768Z,100508.44
2023-07-11T02:04:27.634Z,100507.16
2023-07-11T02:09:30.243Z,100509.69
2023-07-11T02:14:32.000Z,100505.63
2023-07-11T02:19:33.736Z,100507.47
2023-07-11T02:24:36.718Z,100507.03
2023-07-11T02:29:38.442Z,100506.34
2023-07-11T02:34:40.139Z,100521.16
2023-07-11T02:39:41.809Z,100522.56
2023-07-11T02:44:43.688Z,100524.78
2023-07-11T02:49:45.446Z,100526.22
2023-07-11T02:54:47.168Z,100517.44
2023-07-11T02:59:48.845Z,100522.50
2023-07-11T03:04:52.827Z,100527.13
2023-07-11T03:09:54.676Z,100528.16
2023-07-11T03:14:56.372Z,100533.81
2023-07-11T03:19:58.032Z,100533.63
2023-07-11T03:24:59.770Z,100530.28
2023-07-11T03:30:01.558Z,100533.28
2023-07-11T03:35:06.877Z,100539.00
2023-07-11T03:40:09.386Z,100543.66
2023-07-11T03:45:11.281Z,100541.63
2023-07-11T03:50:13.397Z,100543.97
2023-07-11T03:55:15.281Z,100545.91
2023-07-11T04:00:17.183Z,100555.78
2023-07-11T04:05:19.088Z,100546.28
2023-07-11T04:10:21.011Z,100551.38
2023-07-11T04:15:22.735Z,100545.28
2023-07-11T04:20:24.672Z,100544.34
2023-07-11T04:25:26.322Z,100551.41
2023-07-11T04:30:28.108Z,100546.34
2023-07-11T04:35:31.083Z,100542.44
2023-07-11T04:40:32.853Z,100544.41
2023-07-11T04:45:35.738Z,100549.94
2023-07-11T04:50:37.463Z,100547.66
2023-07-11T04:55:39.271Z,100545.41
2023-07-11T05:00:41.206Z,100536.19
2023-07-11T05:05:42.855Z,100546.94
2023-07-11T05:11:02.603Z,100541.50
2023-07-11T05:16:11.514Z,100538.75
2023-07-11T05:21:16.409Z,100541.81
2023-07-11T05:26:18.845Z,100533.47
2023-07-11T05:31:20.626Z,100529.22
2023-07-11T05:36:26.830Z,100532.34
2023-07-11T05:41:29.877Z,100531.59
2023-07-11T05:46:32.071Z,100523.72
2023-07-11T05:51:34.617Z,100521.81
2023-07-11T05:56:36.357Z,100517.84
2023-07-11T06:01:38.212Z,100516.97
2023-07-11T06:06:43.608Z,100504.94
2023-07-11T06:11:46.807Z,100499.66
2023-07-11T06:16:51.134Z,100500.19
2023-07-11T06:21:53.565Z,100499.53
2023-07-11T06:26:55.265Z,100505.69
2023-07-11T06:31:57.285Z,100497.31
2023-07-11T06:36:59.061Z,100501.72
2023-07-11T06:42:00.802Z,100497.06
2023-07-11T06:47:02.899Z,100496.16
2023-07-11T06:52:04.942Z,100489.72
2023-07-11T06:57:06.854Z,100498.81
2023-07-11T07:02:10.781Z,100506.59
2023-07-11T07:07:12.406Z,100493.84
2023-07-11T07:12:16.799Z,100492.56
2023-07-11T07:17:18.722Z,100482.34
2023-07-11T07:22:20.539Z,100495.63
2023-07-11T07:27:28.536Z,100474.91
2023-07-11T07:32:31.063Z,100471.13
2023-07-11T07:37:32.885Z,100458.84
2023-07-11T07:42:34.573Z,100451.88
2023-07-11T07:47:36.537Z,100444.16
2023-07-11T07:52:38.288Z,100445.88
2023-07-11T07:57:40.463Z,100441.56
2023-07-11T08:02:43.872Z,100439.91
2023-07-11T08:07:45.949Z,100440.97
2023-07-11T08:12:47.942Z,100440.47
2023-07-11T08:17:49.634Z,100427.13
2023-07-11T08:22:51.388Z,100419.78
2023-07-11T08:27:53.035Z,100421.16
2023-07-11T08:32:54.740Z,100418.22
2023-07-11T08:37:56.621Z,100405.72
2023-07-11T08:43:02.323Z,100398.81
2023-07-11T08:48:28.799Z,100395.38
2023-07-11T08:53:39.261Z,100387.84
2023-07-11T08:58:41.730Z,100388.22
2023-07-11T09:03:46.000Z,100381.44
2023-07-11T09:08:48.642Z,100376.38
2023-07-11T09:13:56.241Z,100371.31
2023-07-11T09:19:36.741Z,100367.72
2023-07-11T09:24:41.753Z,100354.19
2023-07-11T09:29:46.621Z,100347.97
2023-07-11T09:34:51.544Z,100351.09
2023-07-11T09:39:59.208Z,100344.03
2023-07-11T09:45:02.235Z,100339.53
2023-07-11T09:50:38.192Z,100333.25
2023-07-11T09:55:41.672Z,100337.25
2023-07-11T10:00:53.193Z,100317.09
2023-07-11T10:05:55.712Z,100314.91
2023-07-11T10:11:03.746Z,100302.34
2023-07-11T10:16:06.243Z,100295.31
2023-07-11T10:21:21.939Z,100291.69
2023-07-11T10:26:28.402Z,100280.13
2023-07-11T10:31:39.685Z,100283.38
2023-07-11T10:36:47.427Z,100263.69
2023-07-11T10:42:08.228Z,100254.66
2023-07-11T10:47:10.500Z,100246.78
2023-07-11T10:52:26.612Z,100240.84
2023-07-11T10:57:44.796Z,100227.44
2023-07-11T11:03:07.862Z,100226.31
2023-07-11T11:08:37.777Z,100205.53
2023-07-11T11:13:46.485Z,100197.94
2023-07-11T11:19:03.840Z,100200.81
2023-07-11T11:24:19.370Z,100188.00
2023-07-11T11:29:39.448Z,100181.06
2023-07-11T11:35:15.475Z,100178.59
2023-07-11T11:40:22.787Z,100171.91
2023-07-11T11:55:35.497Z,100145.56
2023-07-11T12:00:46.047Z,100146.69
2023-07-11T12:05:53.443Z,100125.53
2023-07-11T12:11:07.832Z,100118.34
2023-07-11T12:16:35.904Z,100121.94
2023-07-11T12:21:45.248Z,100104.16
2023-07-11T12:26:47.015Z,100093.56
2023-07-11T12:32:27.030Z,100098.22
2023-07-11T12:37:29.156Z,100084.59
2023-07-11T12:42:43.166Z,100076.25
2023-07-11T12:47:49.073Z,100058.06
2023-07-11T12:52:59.098Z,100054.31
2023-07-11T12:58:00.770Z,100055.13
2023-07-11T13:03:25.722Z,100047.91
2023-07-11T13:08:32.054Z,100039.50
2023-07-11T13:13:35.109Z,100038.38
2023-07-11T13:18:40.224Z,100031.06
2023-07-11T13:23:46.822Z,100026.34
2023-07-11T13:29:02.374Z,100018.56
2023-07-11T13:34:13.294Z,100001.56
2023-07-11T13:39:17.305Z,100000.19
2023-07-11T13:44:22.052Z,99988.66
2023-07-11T13:49:27.411Z,99985.63
2023-07-11T13:54:35.874Z,99980.06
2023-07-11T13:59:38.847Z,99982.28
2023-07-11T14:04:42.890Z,99968.56
2023-07-11T14:09:44.671Z,99965.22
2023-07-11T14:14:47.258Z,99958.03
2023-07-11T14:19:49.006Z,99955.59
2023-07-11T14:24:50.944Z,99937.88
2023-07-11T14:29:53.014Z,99934.25
2023-07-11T14:34:54.740Z,99925.19
2023-07-11T14:39:57.660Z,99929.75
2023-07-11T14:44:59.562Z,99923.28
2023-07-11T14:50:05.047Z,99915.22
2023-07-11T15:00:21.697Z,99908.25
2023-07-11T15:10:29.026Z,99901.81
2023-07-11T15:15:32.700Z,99892.38
2023-07-11T15:20:34.530Z,99879.34
2023-07-11T15:25:37.835Z,99879.94
2023-07-11T15:30:42.791Z,99886.50
2023-07-11T15:35:44.456Z,99861.31
2023-07-11T15:40:46.120Z,99866.38
2023-07-11T15:45:47.818Z,99856.84
2023-07-11T15:50:50.920Z,99849.91
2023-07-11T15:55:52.649Z,99835.72
2023-07-11T16:00:54.962Z,99826.28
2023-07-11T16:05:57.746Z,99825.69
2023-07-11T16:11:01.656Z,99817.09
2023-07-11T16:16:03.672Z,99815.38
2023-07-11T16:21:05.580Z,99810.63
2023-07-11T16:26:23.816Z,99801.13
2023-07-11T16:31:27.200Z,99794.06
2023-07-11T16:36:29.227Z,99795.72
2023-07-11T16:41:30.925Z,99786.81
2023-07-11T16:46:32.628Z,99783.19
2023-07-11T16:51:34.364Z,99780.16
2023-07-11T16:56:35.988Z,99784.13
2023-07-11T17:01:37.676Z,99769.59
2023-07-11T17:06:40.475Z,99769.66
2023-07-11T17:11:42.137Z,99764.63
2023-07-11T17:16:46.386Z,99760.19
2023-07-11T17:21:48.160Z,99750.91
2023-07-11T17:26:52.121Z,99752.16
2023-07-11T17:31:53.803Z,99753.41
2023-07-11T17:36:55.729Z,99744.50
2023-07-11T17:42:05.435Z,99741.88
2023-07-11T17:47:36.762Z,99744.66
2023-07-11T17:52:40.378Z,99743.72
2023-07-11T17:57:42.145Z,99732.97
2023-07-11T18:02:58.363Z,99739.41
2023-07-11T18:08:03.578Z,99728.31
2023-07-11T18:13:11.336Z,99727.31
2023-07-11T18:18:28.028Z,99718.00
2023-07-11T18:23:29.960Z,99722.59
2023-07-11T18:28:31.606Z,99717.09
2023-07-11T18:33:33.342Z,99712.19
2023-07-11T18:38:36.025Z,99717.56
2023-07-11T18:43:37.734Z,99714.63
2023-07-11T18:48:41.168Z,99722.88
2023-07-11T18:53:43.713Z,99709.94
2023-07-11T18:58:45.432Z,99703.63
2023-07-11T19:03:47.203Z,99710.09
2023-07-11T19:08:49.364Z,99709.03
2023-07-11T19:13:51.221Z,99703.81
2023-07-11T19:18:52.970Z,99701.94
2023-07-11T19:23:54.752Z,99701.47
2023-07-11T19:28:57.064Z,99693.97
2023-07-11T19:33:58.716Z,99687.63
2023-07-11T19:39:00.488Z,99672.72
2023-07-11T19:44:02.136Z,99666.09
2023-07-11T19:49:03.806Z,99665.56
2023-07-11T19:54:05.501Z,99666.13
2023-07-11T19:59:09.029Z,99647.56
2023-07-11T20:04:10.835Z,99634.84
2023-07-11T20:09:12.577Z,99635.13
2023-07-11T20:14:14.720Z,99621.25
2023-07-11T20:19:16.380Z,99603.50
2023-07-11T20:24:18.096Z,99596.59
2023-07-11T20:29:20.067Z,99586.91
2023-07-11T20:34:21.771Z,99568.91
2023-07-11T20:39:23.540Z,99567.53
2023-07-11T20:44:25.235Z,99575.28
2023-07-11T20:49:26.982Z,99586.88
2023-07-11T20:54:28.668Z,99599.34
2023-07-11T20:59:30.344Z,99617.56
2023-07-11T21:04:32.081Z,99595.94
2023-07-11T21:09:33.762Z,99594.00
2023-07-11T21:14:35.400Z,99578.16
2023-07-11T21:19:37.169Z,99581.72
2023-07-11T21:24:38.879Z,99576.16
2023-07-11T21:29:41.857Z,99565.59
2023-07-11T21:34:44.991Z,99571.59
2023-07-11T21:39:46.704Z,99578.47
2023-07-11T21:44:48.390Z,99586.41
2023-07-11T21:49:50.096Z,99571.44
2023-07-11T21:54:53.328Z,99581.91
2023-07-11T21:59:54.998Z,99592.34
2023-07-11T22:04:57.283Z,99595.81
2023-07-11T22:09:58.977Z,99590.56
2023-07-11T22:15:00.621Z,99582.81
2023-07-11T22:20:02.359Z,99573.97
2023-07-11T22:25:05.787Z,99563.25
2023-07-11T22:30:16.679Z,99553.59
2023-07-11T22:35:19.116Z,99544.72
2023-07-11T22:40:24.040Z,99537.53
2023-07-11T22:45:26.155Z,99529.78
2023-07-11T22:50:40.534Z,99530.03
2023-07-11T22:55:49.571Z,99523.38
2023-07-11T23:00:51.716Z,99520.91
2023-07-11T23:05:57.374Z,99512.63
2023-07-11T23:10:59.732Z,99488.91
2023-07-11T23:16:01.425Z,99488.63
2023-07-11T23:21:03.171Z,99485.59
2023-07-11T23:26:13.078Z,99490.03
2023-07-11T23:31:14.829Z,99491.97
2023-07-11T23:36:25.484Z,99504.25
2023-07-11T23:41:27.157Z,99513.94
2023-07-11T23:46:30.694Z,99511.44
2023-07-11T23:51:32.394Z,99510.84
2023-07-11T23:56:34.104Z,99497.78
